Time;durP1;ratioP1;P1;durP2;ratioP2;P2;SDS_P1;SDS_P2;PMS_P1;PMS_P2;Temp;Humidity;BMP_temperature;BMP_pressure;BME280_temperature;BME280_humidity;BME280_pressure;Samples;Min_cycle;Max_cycle;Signal;HPM_P1;HPM_P2
2023/06/02 00:02:19;;;;;;;11.38;5.60;;;11.60;99.90;;;;;;4962604;28;20035;-66
2023/06/02 00:04:45;;;;;;;12.30;6.10;;;11.50;99.90;;;;;;4954657;28;20039;-66
2023/06/02 00:07:11;;;;;;;8.50;5.38;;;11.60;99.90;;;;;;4962922;28;20042;-66
2023/06/02 00:09:41;;;;;;;11.57;5.57;;;11.60;99.90;;;;;;4957749;28;20027;-65
2023/06/02 00:12:08;;;;;;;12.82;6.55;;;11.50;99.90;;;;;;4955335;28;20626;-66
2023/06/02 00:14:37;;;;;;;12.35;6.18;;;11.50;99.90;;;;;;4958819;28;20022;-66
2023/06/02 00:17:03;;;;;;;15.73;5.70;;;11.50;99.90;;;;;;4965020;28;20516;-66
2023/06/02 00:19:32;;;;;;;12.10;5.22;;;11.50;99.90;;;;;;4965322;28;20039;-66
2023/06/02 00:22:01;;;;;;;9.98;5.50;;;11.50;99.90;;;;;;4977725;28;20390;-65
2023/06/02 00:24:26;;;;;;;12.43;5.50;;;11.50;99.90;;;;;;4965115;28;20030;-65
2023/06/02 00:26:52;;;;;;;8.38;5.20;;;11.50;99.90;;;;;;4934121;28;20065;-66
2023/06/02 00:29:18;;;;;;;8.93;5.10;;;11.50;99.90;;;;;;4961619;28;20031;-65
2023/06/02 00:31:43;;;;;;;10.40;4.82;;;11.50;99.90;;;;;;4963671;28;20034;-65
2023/06/02 00:34:09;;;;;;;9.23;4.95;;;11.50;99.90;;;;;;4967062;28;20543;-66
2023/06/02 00:36:35;;;;;;;13.77;4.93;;;11.50;99.90;;;;;;4964098;28;20050;-66
2023/06/02 00:39:00;;;;;;;10.13;5.10;;;11.40;99.90;;;;;;4964038;28;20527;-66
2023/06/02 00:41:26;;;;;;;13.52;5.93;;;11.50;99.90;;;;;;4964812;28;20050;-65
2023/06/02 00:43:52;;;;;;;11.40;4.68;;;11.40;99.90;;;;;;4965367;28;20030;-65
2023/06/02 00:46:18;;;;;;;16.65;5.40;;;11.50;99.90;;;;;;4965491;28;20068;-65
2023/06/02 00:48:46;;;;;;;12.75;5.45;;;11.50;99.90;;;;;;4967998;28;20141;-66
2023/06/02 00:51:12;;;;;;;13.13;5.13;;;11.50;99.90;;;;;;4964541;28;20058;-65
2023/06/02 00:53:38;;;;;;;14.48;5.55;;;11.50;99.90;;;;;;4963559;28;20402;-65
2023/06/02 00:56:03;;;;;;;10.65;5.13;;;11.50;99.90;;;;;;4965509;28;20517;-65
2023/06/02 00:58:30;;;;;;;11.50;5.20;;;11.50;99.90;;;;;;4965278;28;20037;-65
2023/06/02 01:00:56;;;;;;;9.57;5.10;;;11.50;99.90;;;;;;4963434;28;20031;-64
2023/06/02 01:03:24;;;;;;;9.02;4.93;;;11.50;99.90;;;;;;4961143;28;20023;-65
2023/06/02 01:05:53;;;;;;;17.45;5.72;;;11.50;99.90;;;;;;4962366;28;20057;-66
2023/06/02 01:08:20;;;;;;;11.93;5.03;;;11.60;99.90;;;;;;4960570;28;20031;-66
2023/06/02 01:10:46;;;;;;;8.52;4.30;;;11.60;99.90;;;;;;4961291;28;20027;-65
2023/06/02 01:13:12;;;;;;;11.60;4.70;;;11.60;99.90;;;;;;4964557;28;20022;-66
2023/06/02 01:15:37;;;;;;;10.05;5.28;;;11.60;99.90;;;;;;4964089;28;20125;-66
2023/06/02 01:18:10;;;;;;;10.07;5.00;;;11.50;99.90;;;;;;4963476;28;20041;-66
2023/06/02 01:20:52;;;;;;;16.42;5.60;;;11.60;99.90;;;;;;4962773;28;20026;-66
2023/06/02 01:23:21;;;;;;;10.82;4.82;;;11.60;99.90;;;;;;4964404;28;20031;-67
2023/06/02 01:25:47;;;;;;;12.50;6.50;;;11.60;99.90;;;;;;4960717;28;20038;-66
2023/06/02 01:28:15;;;;;;;8.23;5.40;;;11.60;99.90;;;;;;4966528;28;20039;-66
2023/06/02 01:30:40;;;;;;;15.40;5.88;;;11.60;99.90;;;;;;4968799;28;20023;-66
2023/06/02 01:33:17;;;;;;;14.68;6.82;;;11.70;99.90;;;;;;4963276;28;20026;-66
2023/06/02 01:35:48;;;;;;;12.60;6.07;;;11.60;99.90;;;;;;4967732;28;20029;-67
2023/06/02 01:38:17;;;;;;;13.10;5.43;;;11.60;99.90;;;;;;4968521;28;20059;-66
2023/06/02 01:40:44;;;;;;;9.68;5.25;;;11.60;99.90;;;;;;4968412;28;20019;-66
2023/06/02 01:43:11;;;;;;;10.13;5.85;;;11.70;99.90;;;;;;4970147;28;20069;-65
2023/06/02 01:45:39;;;;;;;11.57;5.82;;;11.70;99.90;;;;;;4963604;28;20131;-66
2023/06/02 01:48:07;;;;;;;13.35;6.88;;;11.70;99.90;;;;;;4966800;28;20034;-66
2023/06/02 01:50:34;;;;;;;13.65;6.65;;;11.60;99.90;;;;;;4970401;28;20034;-66
2023/06/02 01:53:00;;;;;;;11.55;6.95;;;11.60;99.90;;;;;;4967875;28;20015;-66
2023/06/02 01:55:26;;;;;;;14.07;6.40;;;11.60;99.90;;;;;;4963681;28;20093;-66
2023/06/02 01:57:51;;;;;;;12.20;6.22;;;11.70;99.90;;;;;;4963259;28;20031;-65
2023/06/02 02:00:18;;;;;;;14.25;5.43;;;11.60;99.90;;;;;;4966679;28;20026;-66
2023/06/02 02:02:44;;;;;;;12.90;7.28;;;11.60;99.90;;;;;;4968571;28;20074;-65
2023/06/02 02:05:10;;;;;;;12.25;6.25;;;11.60;99.90;;;;;;4963748;28;20047;-66
2023/06/02 02:07:37;;;;;;;16.98;7.88;;;11.60;99.90;;;;;;4962544;28;20030;-66
2023/06/02 02:10:02;;;;;;;17.00;7.88;;;11.60;99.90;;;;;;4967761;28;20031;-67
2023/06/02 02:12:29;;;;;;;16.05;6.68;;;11.60;99.90;;;;;;4966689;28;20551;-66
2023/06/02 02:14:57;;;;;;;11.65;7.07;;;11.60;99.90;;;;;;4962683;28;20062;-66
2023/06/02 02:17:25;;;;;;;14.70;7.35;;;11.60;99.90;;;;;;4966360;28;20485;-66
2023/06/02 02:19:51;;;;;;;13.85;6.65;;;11.60;99.90;;;;;;4965901;28;20031;-66
2023/06/02 02:22:17;;;;;;;10.13;6.60;;;11.60;99.90;;;;;;4962460;28;21158;-65
2023/06/02 02:24:42;;;;;;;10.52;6.45;;;11.60;99.90;;;;;;4964580;28;20150;-65
2023/06/02 02:27:08;;;;;;;10.02;5.20;;;11.50;99.90;;;;;;4963103;28;20030;-65
2023/06/02 02:29:36;;;;;;;10.93;5.97;;;11.50;99.90;;;;;;4965431;28;20039;-65
2023/06/02 02:32:01;;;;;;;11.65;5.15;;;11.50;99.90;;;;;;4963931;28;20027;-65
2023/06/02 02:34:28;;;;;;;7.28;5.10;;;11.50;99.90;;;;;;4965626;28;20113;-65
2023/06/02 02:37:01;;;;;;;10.05;5.35;;;11.40;99.90;;;;;;4965376;28;20508;-66
2023/06/02 02:39:29;;;;;;;9.20;4.65;;;11.50;99.90;;;;;;4972126;28;20029;-66
2023/06/02 02:41:55;;;;;;;13.23;6.65;;;11.50;99.90;;;;;;4968062;28;20035;-66
2023/06/02 02:44:21;;;;;;;10.25;6.53;;;11.50;99.90;;;;;;4970018;28;20035;-66
2023/06/02 02:46:47;;;;;;;14.13;6.68;;;11.50;99.90;;;;;;4963992;23;1174836;-65
2023/06/02 02:49:13;;;;;;;13.27;5.88;;;11.40;99.90;;;;;;4944203;28;20043;-66
2023/06/02 02:51:38;;;;;;;10.40;4.95;;;11.40;99.90;;;;;;4947925;29;20039;-66
2023/06/02 02:54:05;;;;;;;11.32;5.55;;;11.50;99.90;;;;;;4946296;29;20032;-65
2023/06/02 02:56:30;;;;;;;7.55;4.93;;;11.50;99.90;;;;;;4908190;28;20027;-66
2023/06/02 02:58:59;;;;;;;11.35;4.68;;;11.50;99.90;;;;;;4956759;28;20093;-65
2023/06/02 03:01:26;;;;;;;11.20;4.35;;;11.50;99.90;;;;;;4949291;28;20062;-66
2023/06/02 03:03:53;;;;;;;6.20;4.32;;;11.50;99.90;;;;;;4957903;28;20042;-66
2023/06/02 03:06:19;;;;;;;7.47;3.92;;;11.50;99.90;;;;;;4949986;28;20445;-65
2023/06/02 03:08:46;;;;;;;6.55;3.67;;;11.50;99.90;;;;;;4939050;28;20042;-64
2023/06/02 03:11:12;;;;;;;6.03;3.63;;;11.40;99.90;;;;;;4952859;28;20630;-65
2023/06/02 03:13:37;;;;;;;7.85;3.75;;;11.40;99.90;;;;;;4935687;29;20048;-66
2023/06/02 03:16:03;;;;;;;6.38;4.13;;;11.40;99.90;;;;;;4937486;29;20516;-66
2023/06/02 03:18:29;;;;;;;8.32;4.35;;;11.40;99.90;;;;;;4933015;29;20610;-65
2023/06/02 03:20:58;;;;;;;7.72;4.72;;;11.40;99.90;;;;;;4934497;29;20035;-66
2023/06/02 03:23:25;;;;;;;7.57;3.50;;;11.40;99.90;;;;;;4929528;29;20023;-66
2023/06/02 03:25:51;;;;;;;10.55;3.78;;;11.40;99.90;;;;;;4922230;29;20118;-66
2023/06/02 03:28:18;;;;;;;10.73;4.45;;;11.40;99.90;;;;;;4937128;29;20118;-65
2023/06/02 03:30:44;;;;;;;9.43;4.45;;;11.40;99.90;;;;;;4934592;29;20110;-65
2023/06/02 03:33:09;;;;;;;10.27;3.63;;;11.40;99.90;;;;;;4932307;29;20111;-66
2023/06/02 03:35:35;;;;;;;11.35;3.85;;;11.30;99.90;;;;;;4931231;29;20055;-66
2023/06/02 03:38:01;;;;;;;16.08;3.97;;;11.30;99.90;;;;;;4936083;29;20031;-66
2023/06/02 03:40:26;;;;;;;7.57;4.38;;;11.30;99.90;;;;;;4932097;29;20416;-65
2023/06/02 03:42:52;;;;;;;15.32;4.43;;;11.30;99.90;;;;;;4938702;29;20064;-66
2023/06/02 03:45:17;;;;;;;12.30;4.65;;;11.30;99.90;;;;;;4933409;29;20031;-66
2023/06/02 03:47:43;;;;;;;10.88;4.50;;;11.30;99.90;;;;;;4938263;28;20038;-65
2023/06/02 03:50:09;;;;;;;10.23;3.92;;;11.30;99.90;;;;;;4914893;29;20047;-65
2023/06/02 03:52:35;;;;;;;5.20;3.50;;;11.20;99.90;;;;;;4938629;29;20028;-66
2023/06/02 03:55:00;;;;;;;7.55;4.45;;;11.30;99.90;;;;;;4933891;29;20031;-66
2023/06/02 03:57:26;;;;;;;9.68;3.97;;;11.30;99.90;;;;;;4934049;28;20082;-66
2023/06/02 03:59:52;;;;;;;15.20;5.68;;;11.30;99.90;;;;;;4933276;29;20104;-66
2023/06/02 04:02:17;;;;;;;10.18;4.15;;;11.30;99.90;;;;;;4936893;29;20027;-66
2023/06/02 04:04:43;;;;;;;7.13;4.10;;;11.30;99.90;;;;;;4936909;29;20039;-66
2023/06/02 04:07:08;;;;;;;9.50;4.97;;;11.30;99.90;;;;;;4933474;29;20058;-65
2023/06/02 04:09:35;;;;;;;12.05;5.20;;;11.30;99.90;;;;;;4936223;29;20046;-66
2023/06/02 04:12:01;;;;;;;15.48;6.22;;;11.30;99.90;;;;;;4931499;29;20019;-65
2023/06/02 04:14:27;;;;;;;17.42;5.53;;;11.30;99.90;;;;;;4930689;29;20078;-65
2023/06/02 04:16:53;;;;;;;11.20;5.68;;;11.40;99.90;;;;;;4936362;29;20027;-66
2023/06/02 04:19:19;;;;;;;14.35;6.38;;;11.30;99.90;;;;;;4932205;29;20082;-65
2023/06/02 04:21:45;;;;;;;11.60;5.07;;;11.30;99.90;;;;;;4933055;29;20524;-65
2023/06/02 04:24:10;;;;;;;10.55;5.70;;;11.20;99.90;;;;;;4929058;29;20065;-66
2023/06/02 04:26:36;;;;;;;13.63;5.28;;;11.20;99.90;;;;;;4932813;29;20032;-65
2023/06/02 04:29:02;;;;;;;7.00;4.95;;;11.30;99.90;;;;;;4930676;29;20058;-66
2023/06/02 04:31:45;;;;;;;7.85;5.63;;;11.20;99.90;;;;;;4934453;29;20043;-65
2023/06/02 04:34:12;;;;;;;16.15;5.32;;;11.20;99.90;;;;;;4922172;29;20515;-67
2023/06/02 04:36:38;;;;;;;10.18;5.30;;;11.20;99.90;;;;;;4933905;29;20034;-66
2023/06/02 04:39:06;;;;;;;15.52;5.97;;;11.30;99.90;;;;;;4929838;29;20090;-65
2023/06/02 04:41:32;;;;;;;10.95;5.38;;;11.10;99.90;;;;;;4930128;29;20035;-66
2023/06/02 04:44:01;;;;;;;14.00;7.20;;;11.20;99.90;;;;;;4934999;29;20027;-65
2023/06/02 04:46:27;;;;;;;11.70;6.35;;;11.20;99.90;;;;;;4932653;29;20051;-66
2023/06/02 04:48:53;;;;;;;13.45;7.15;;;11.30;99.90;;;;;;4918716;29;20520;-66
2023/06/02 04:51:19;;;;;;;9.68;5.70;;;11.30;99.90;;;;;;4935154;29;20032;-64
2023/06/02 04:53:45;;;;;;;12.93;6.57;;;11.30;99.90;;;;;;4937581;29;20027;-66
2023/06/02 04:56:11;;;;;;;11.40;6.60;;;11.30;99.90;;;;;;4916717;29;20028;-66
2023/06/02 04:58:37;;;;;;;14.65;7.35;;;11.30;99.90;;;;;;4936132;28;20032;-65
2023/06/02 05:01:03;;;;;;;14.68;8.70;;;11.20;99.90;;;;;;4933292;29;20026;-65
2023/06/02 05:03:29;;;;;;;20.10;8.63;;;11.20;99.90;;;;;;4935642;29;20023;-65
2023/06/02 05:05:55;;;;;;;14.30;6.93;;;11.20;99.90;;;;;;4936848;29;20505;-66
2023/06/02 05:08:21;;;;;;;22.50;8.95;;;11.20;99.90;;;;;;4934290;29;20051;-65
2023/06/02 05:10:47;;;;;;;16.40;8.23;;;11.10;99.90;;;;;;4930460;29;20267;-65
2023/06/02 05:13:14;;;;;;;14.25;7.75;;;11.10;99.90;;;;;;4931744;29;20597;-66
2023/06/02 05:15:39;;;;;;;15.25;7.32;;;11.00;99.90;;;;;;4930709;29;20019;-65
2023/06/02 05:18:05;;;;;;;11.57;8.07;;;11.00;99.90;;;;;;4931701;29;20024;-65
2023/06/02 05:20:30;;;;;;;14.80;7.38;;;11.10;99.90;;;;;;4927416;29;20028;-65
2023/06/02 05:22:56;;;;;;;18.25;6.88;;;11.10;99.90;;;;;;4932468;29;20027;-65
2023/06/02 05:25:21;;;;;;;18.98;7.25;;;11.00;99.90;;;;;;4914383;29;20031;-65
2023/06/02 05:27:47;;;;;;;12.88;6.75;;;11.10;99.90;;;;;;4931054;29;20122;-64
2023/06/02 05:30:14;;;;;;;14.65;6.63;;;11.20;99.90;;;;;;4930662;29;20055;-66
2023/06/02 05:32:40;;;;;;;19.92;7.25;;;11.20;99.90;;;;;;4933895;29;20506;-65
2023/06/02 05:35:06;;;;;;;13.35;6.90;;;11.20;99.90;;;;;;4928920;29;20031;-65
2023/06/02 05:37:31;;;;;;;11.63;6.03;;;11.10;99.90;;;;;;4928026;29;20869;-65
2023/06/02 05:39:57;;;;;;;14.27;6.28;;;11.20;99.90;;;;;;4928735;29;20035;-67
2023/06/02 05:42:24;;;;;;;10.07;5.47;;;11.20;99.90;;;;;;4930929;29;20039;-65
2023/06/02 05:44:50;;;;;;;12.57;6.07;;;11.30;99.90;;;;;;4916163;29;20756;-65
2023/06/02 05:47:16;;;;;;;14.82;5.25;;;11.30;99.90;;;;;;4935620;28;20118;-65
2023/06/02 05:49:41;;;;;;;11.90;4.63;;;11.40;99.90;;;;;;4932449;29;20031;-66
2023/06/02 05:52:07;;;;;;;11.02;4.78;;;11.50;99.90;;;;;;4941059;29;20410;-66
2023/06/02 05:54:32;;;;;;;15.95;4.80;;;11.70;99.90;;;;;;4930689;29;20028;-65
2023/06/02 05:56:58;;;;;;;14.30;4.00;;;11.60;99.90;;;;;;4934874;28;20031;-65
2023/06/02 05:59:24;;;;;;;11.02;5.80;;;11.70;99.90;;;;;;4928571;29;20039;-65
2023/06/02 06:01:49;;;;;;;17.25;4.78;;;11.80;99.90;;;;;;4932833;29;20108;-66
2023/06/02 06:04:15;;;;;;;13.90;4.25;;;11.80;99.90;;;;;;4929325;29;20050;-66
2023/06/02 06:06:40;;;;;;;9.73;3.47;;;11.80;99.90;;;;;;4927179;29;20062;-64
2023/06/02 06:09:06;;;;;;;8.95;3.72;;;11.90;99.90;;;;;;4933799;29;20023;-65
2023/06/02 06:11:33;;;;;;;11.43;3.95;;;11.90;99.90;;;;;;4929775;29;20020;-66
2023/06/02 06:14:00;;;;;;;6.63;2.45;;;12.00;99.90;;;;;;4925270;29;20019;-65
2023/06/02 06:16:27;;;;;;;11.43;2.78;;;12.10;99.90;;;;;;4934029;29;20050;-66
2023/06/02 06:18:52;;;;;;;9.95;3.15;;;12.10;99.10;;;;;;4935004;29;20450;-65
2023/06/02 06:21:18;;;;;;;9.15;3.30;;;12.20;99.10;;;;;;4933715;29;20063;-65
2023/06/02 06:23:43;;;;;;;7.60;2.40;;;12.40;99.10;;;;;;4930558;29;20059;-66
2023/06/02 06:26:09;;;;;;;6.80;2.95;;;12.40;98.50;;;;;;4939607;29;20106;-65
2023/06/02 06:28:34;;;;;;;10.98;3.33;;;12.40;98.40;;;;;;4931011;29;20027;-66
2023/06/02 06:31:00;;;;;;;11.32;2.78;;;12.30;98.20;;;;;;4937298;29;20111;-66
2023/06/02 06:33:26;;;;;;;9.88;3.30;;;12.30;98.50;;;;;;4934029;29;20690;-66
2023/06/02 06:35:51;;;;;;;6.93;2.88;;;12.40;98.50;;;;;;4936305;29;20028;-66
2023/06/02 06:38:17;;;;;;;15.35;3.55;;;12.40;98.10;;;;;;4930324;29;20036;-65
2023/06/02 06:40:43;;;;;;;9.85;3.90;;;12.40;98.30;;;;;;4931592;29;20044;-63
2023/06/02 06:43:09;;;;;;;12.50;4.28;;;12.40;98.30;;;;;;4926215;29;20034;-65
2023/06/02 06:45:35;;;;;;;13.63;3.35;;;12.40;98.00;;;;;;4926956;29;20024;-65
2023/06/02 06:48:00;;;;;;;8.48;2.70;;;12.40;97.80;;;;;;4926359;29;20734;-66
2023/06/02 06:50:26;;;;;;;6.65;2.60;;;12.50;98.30;;;;;;4926551;29;20035;-67
2023/06/02 06:52:51;;;;;;;9.30;2.95;;;12.60;97.80;;;;;;4929158;29;20027;-66
2023/06/02 06:55:17;;;;;;;12.40;3.53;;;12.60;97.40;;;;;;4926163;29;20376;-66
2023/06/02 06:57:42;;;;;;;13.30;2.80;;;12.60;97.90;;;;;;4927257;29;20038;-65
2023/06/02 07:00:08;;;;;;;21.38;3.28;;;12.70;97.70;;;;;;4926723;29;20035;-66
2023/06/02 07:02:34;;;;;;;12.88;2.95;;;12.80;97.60;;;;;;4930940;29;20027;-66
2023/06/02 07:05:00;;;;;;;13.07;4.03;;;12.90;97.50;;;;;;4932636;29;20027;-66
2023/06/02 07:07:25;;;;;;;17.13;2.95;;;13.10;97.00;;;;;;4932609;29;20111;-66
2023/06/02 07:09:52;;;;;;;8.38;3.55;;;13.50;96.60;;;;;;4933438;29;20551;-65
2023/06/02 07:12:18;;;;;;;14.02;3.42;;;13.70;96.20;;;;;;4938453;29;20038;-66
2023/06/02 07:14:43;;;;;;;12.85;3.30;;;13.80;95.10;;;;;;4930346;29;20501;-65
2023/06/02 07:17:09;;;;;;;15.07;3.55;;;13.90;95.50;;;;;;4932853;29;20031;-67
2023/06/02 07:19:35;;;;;;;17.13;4.50;;;13.90;96.00;;;;;;4932994;29;20490;-66
2023/06/02 07:22:00;;;;;;;9.82;3.50;;;14.30;95.00;;;;;;4932507;29;20118;-66
2023/06/02 07:24:26;;;;;;;13.90;4.78;;;14.70;94.50;;;;;;4936818;29;20580;-67
2023/06/02 07:26:52;;;;;;;14.77;3.83;;;15.40;93.80;;;;;;4933460;29;20067;-67
2023/06/02 07:29:18;;;;;;;12.50;3.38;;;15.90;92.80;;;;;;4931027;29;20035;-66
2023/06/02 07:31:44;;;;;;;8.18;2.55;;;16.60;92.20;;;;;;4931614;29;20043;-66
2023/06/02 07:34:09;;;;;;;17.63;3.58;;;17.00;91.10;;;;;;4921082;29;20058;-67
2023/06/02 07:36:35;;;;;;;19.38;4.35;;;17.40;88.70;;;;;;4932850;29;20406;-65
2023/06/02 07:39:01;;;;;;;17.25;5.25;;;17.40;89.30;;;;;;4930838;29;20118;-66
2023/06/02 07:41:27;;;;;;;8.13;4.05;;;17.00;88.10;;;;;;4938897;29;20509;-67
2023/06/02 07:43:53;;;;;;;14.05;5.35;;;16.80;90.50;;;;;;4938783;29;20532;-66
2023/06/02 07:46:19;;;;;;;15.50;4.40;;;17.00;90.00;;;;;;4927436;29;20039;-68
2023/06/02 07:48:45;;;;;;;19.27;4.68;;;16.70;90.00;;;;;;4923579;29;20103;-65
2023/06/02 07:51:10;;;;;;;8.90;4.20;;;16.70;87.90;;;;;;4934569;29;20480;-67
2023/06/02 07:53:36;;;;;;;12.27;4.55;;;16.40;90.40;;;;;;4926980;29;20588;-66
2023/06/02 07:56:02;;;;;;;13.93;4.55;;;16.60;89.30;;;;;;4932023;29;20023;-66
2023/06/02 07:58:28;;;;;;;10.95;5.60;;;16.40;89.60;;;;;;4937637;28;20086;-67
2023/06/02 08:00:53;;;;;;;11.93;4.57;;;16.40;89.10;;;;;;4932842;29;20024;-68
2023/06/02 08:03:19;;;;;;;16.85;5.13;;;15.90;90.20;;;;;;4934489;29;20031;-66
2023/06/02 08:05:45;;;;;;;12.52;4.60;;;16.50;90.60;;;;;;4932264;29;20028;-67
2023/06/02 08:08:11;;;;;;;18.77;4.68;;;17.50;87.50;;;;;;4935552;29;20172;-66
2023/06/02 08:10:37;;;;;;;9.88;4.70;;;19.00;84.40;;;;;;4930107;29;20035;-67
2023/06/02 08:13:02;;;;;;;9.90;3.45;;;20.20;80.50;;;;;;4930679;29;20525;-68
2023/06/02 08:15:28;;;;;;;11.93;3.17;;;21.50;77.10;;;;;;4911760;29;20090;-67
2023/06/02 08:17:54;;;;;;;10.60;3.05;;;21.90;76.70;;;;;;4931575;29;20414;-67
2023/06/02 08:20:19;;;;;;;10.05;3.10;;;22.60;76.10;;;;;;4927277;29;20123;-66
2023/06/02 08:22:46;;;;;;;9.50;3.17;;;23.40;72.70;;;;;;4930819;29;20599;-67
2023/06/02 08:25:12;;;;;;;6.78;3.25;;;24.30;69.40;;;;;;4927667;29;20054;-67
2023/06/02 08:27:38;;;;;;;10.02;3.15;;;23.80;67.10;;;;;;4928053;29;20031;-67
2023/06/02 08:30:05;;;;;;;10.05;3.00;;;24.10;67.30;;;;;;4927510;29;20103;-67
2023/06/02 08:32:31;;;;;;;6.63;2.85;;;24.20;68.90;;;;;;4922439;29;20027;-67
2023/06/02 08:35:01;;;;;;;7.80;2.88;;;24.50;68.80;;;;;;4928320;29;20027;-67
2023/06/02 08:37:27;;;;;;;9.10;3.03;;;25.40;67.30;;;;;;4931768;29;20038;-67
2023/06/02 08:39:52;;;;;;;10.45;3.28;;;25.50;63.60;;;;;;4933451;29;20118;-68
2023/06/02 08:42:19;;;;;;;6.70;2.75;;;25.60;66.10;;;;;;4920970;29;20485;-66
2023/06/02 08:44:45;;;;;;;11.23;3.10;;;26.40;62.80;;;;;;4912155;29;20032;-67
2023/06/02 08:47:12;;;;;;;8.68;2.75;;;24.40;64.50;;;;;;4932345;29;20126;-69
2023/06/02 08:49:42;;;;;;;9.02;3.38;;;24.80;64.90;;;;;;4926711;29;20036;-67
2023/06/02 08:52:18;;;;;;;11.18;3.42;;;25.50;62.50;;;;;;4932899;29;20102;-68
2023/06/02 08:54:44;;;;;;;8.43;2.83;;;24.80;62.80;;;;;;4930614;29;20482;-66
2023/06/02 08:57:13;;;;;;;5.95;2.58;;;23.90;63.70;;;;;;4935421;28;20035;-67
2023/06/02 08:59:40;;;;;;;12.38;2.65;;;24.30;65.40;;;;;;4928694;29;20027;-67
2023/06/02 09:02:06;;;;;;;12.10;3.40;;;25.10;63.90;;;;;;4933916;29;20544;-66
2023/06/02 09:04:32;;;;;;;9.65;3.17;;;24.20;62.70;;;;;;4931702;29;20032;-68
2023/06/02 09:07:12;;;;;;;9.02;3.13;;;24.30;64.80;;;;;;4936882;29;20389;-68
2023/06/02 09:09:47;;;;;;;12.07;2.88;;;23.70;63.70;;;;;;4910225;29;20066;-68
2023/06/02 09:12:14;;;;;;;8.95;2.47;;;22.40;67.10;;;;;;4933236;29;20390;-67
2023/06/02 09:14:40;;;;;;;13.35;2.90;;;22.40;68.10;;;;;;4936472;29;20034;-68
2023/06/02 09:17:29;;;;;;;9.82;3.55;;;22.50;66.50;;;;;;4929687;29;20035;-68
2023/06/02 09:19:57;;;;;;;9.13;2.70;;;22.40;66.60;;;;;;4926588;29;20390;-67
2023/06/02 09:22:23;;;;;;;9.35;2.97;;;21.80;68.90;;;;;;4934165;29;20031;-66
2023/06/02 09:24:48;;;;;;;11.05;2.65;;;22.50;68.20;;;;;;4930031;29;20043;-68
2023/06/02 09:27:15;;;;;;;20.45;3.67;;;22.40;68.30;;;;;;4930301;29;20091;-66
2023/06/02 09:29:42;;;;;;;12.25;3.08;;;23.20;65.70;;;;;;4934981;29;20027;-67
2023/06/02 09:32:13;;;;;;;13.38;3.47;;;23.30;65.10;;;;;;4930314;29;20230;-66
2023/06/02 09:34:38;;;;;;;8.68;2.90;;;21.70;69.10;;;;;;4936542;29;20031;-69
2023/06/02 09:37:07;;;;;;;9.30;2.80;;;22.60;68.50;;;;;;4929877;29;20026;-67
2023/06/02 09:39:34;;;;;;;9.45;2.80;;;23.40;66.30;;;;;;4924894;29;20036;-67
2023/06/02 09:42:01;;;;;;;9.60;2.88;;;23.00;68.40;;;;;;4934947;29;20055;-68
2023/06/02 09:44:27;;;;;;;6.32;2.85;;;22.70;67.60;;;;;;4936833;29;20106;-68
2023/06/02 09:46:53;;;;;;;9.98;2.38;;;22.40;67.60;;;;;;4938841;28;20134;-67
2023/06/02 09:49:19;;;;;;;8.23;2.70;;;22.70;68.60;;;;;;4940833;29;20083;-67
2023/06/02 09:51:45;;;;;;;12.52;3.35;;;23.10;66.80;;;;;;4943221;29;20051;-67
2023/06/02 09:54:11;;;;;;;9.15;2.88;;;23.30;66.90;;;;;;4931672;29;20028;-68
2023/06/02 09:56:38;;;;;;;9.85;3.03;;;23.50;65.30;;;;;;4930670;28;20086;-66
2023/06/02 09:59:05;;;;;;;8.20;2.72;;;23.30;66.80;;;;;;4934441;29;20437;-67
2023/06/02 10:01:32;;;;;;;13.30;2.70;;;24.20;65.40;;;;;;4938833;29;20401;-67
2023/06/02 10:03:58;;;;;;;9.68;3.00;;;23.30;64.70;;;;;;4930116;29;20683;-68
2023/06/02 10:07:06;;;;;;;10.63;3.20;;;23.10;66.40;;;;;;4936629;29;20035;-67
2023/06/02 10:10:09;;;;;;;9.30;3.72;;;21.90;68.20;;;;;;4925898;29;20066;-68
2023/06/02 10:12:44;;;;;;;10.52;4.22;;;20.90;71.20;;;;;;4937837;29;20024;-68
2023/06/02 10:15:40;;;;;;;11.70;3.53;;;20.80;70.40;;;;;;4942594;29;20057;-66
2023/06/02 10:18:32;;;;;;;12.80;3.30;;;20.40;71.50;;;;;;4930191;29;20016;-67
2023/06/02 10:21:10;;;;;;;8.75;3.10;;;20.30;71.70;;;;;;4932295;29;20050;-66
2023/06/02 10:24:05;;;;;;;10.63;4.28;;;20.30;72.40;;;;;;4928829;29;20040;-67
2023/06/02 10:26:47;;;;;;;8.48;2.58;;;19.80;70.90;;;;;;4930098;29;20042;-66
2023/06/02 10:29:15;;;;;;;8.57;3.38;;;19.70;73.40;;;;;;4939699;29;20031;-66
2023/06/02 10:31:42;;;;;;;9.55;3.38;;;19.70;74.80;;;;;;4932918;29;20020;-67
2023/06/02 10:34:07;;;;;;;10.18;3.20;;;19.90;74.10;;;;;;4931676;29;20421;-66
2023/06/02 10:37:01;;;;;;;10.15;3.80;;;20.00;74.30;;;;;;4934696;29;20038;-67
2023/06/02 10:39:41;;;;;;;7.75;3.22;;;19.90;73.40;;;;;;4926126;29;20023;-66
2023/06/02 10:42:17;;;;;;;15.38;4.30;;;20.00;75.10;;;;;;4928662;29;20036;-66
2023/06/02 10:44:43;;;;;;;8.85;3.47;;;19.80;73.40;;;;;;4935030;29;20020;-66
2023/06/02 10:47:18;;;;;;;12.02;4.32;;;19.70;74.10;;;;;;4933831;29;20090;-66
2023/06/02 10:50:03;;;;;;;10.32;4.78;;;19.40;73.50;;;;;;4939757;29;20028;-66
2023/06/02 10:52:31;;;;;;;10.10;3.95;;;19.30;74.10;;;;;;4932557;29;20032;-67
2023/06/02 10:55:12;;;;;;;13.32;4.40;;;19.20;76.20;;;;;;4926201;29;20030;-66
2023/06/02 10:57:56;;;;;;;11.05;4.38;;;19.40;75.20;;;;;;4931968;29;20106;-66
2023/06/02 11:00:39;;;;;;;12.60;3.65;;;19.20;74.90;;;;;;4931539;29;20413;-66
2023/06/02 11:03:27;;;;;;;14.32;4.15;;;18.90;77.00;;;;;;4937845;29;20063;-66
2023/06/02 11:06:19;;;;;;;12.20;3.58;;;18.60;77.00;;;;;;4934299;29;20047;-67
2023/06/02 11:08:45;;;;;;;11.63;4.05;;;18.60;76.60;;;;;;4927552;29;20489;-65
2023/06/02 11:11:11;;;;;;;18.58;5.20;;;18.80;76.80;;;;;;4936553;29;20027;-67
2023/06/02 11:13:57;;;;;;;7.80;3.67;;;18.70;76.60;;;;;;4938789;29;20430;-66
2023/06/02 11:16:25;;;;;;;11.95;3.25;;;18.80;76.40;;;;;;4933895;29;20030;-66
2023/06/02 11:18:51;;;;;;;11.95;3.90;;;18.60;78.60;;;;;;4931678;29;20039;-66
2023/06/02 11:21:19;;;;;;;17.75;4.07;;;18.40;76.00;;;;;;4933651;29;20161;-66
2023/06/02 11:23:46;;;;;;;12.60;3.83;;;18.30;78.60;;;;;;4933972;29;20035;-66
2023/06/02 11:26:18;;;;;;;9.65;3.28;;;18.70;78.10;;;;;;4938155;29;20039;-66
2023/06/02 11:28:44;;;;;;;9.27;3.45;;;18.60;76.20;;;;;;4914989;29;20087;-65
2023/06/02 11:31:14;;;;;;;9.50;3.33;;;18.80;76.20;;;;;;4932302;29;20036;-66
2023/06/02 11:33:51;;;;;;;15.23;4.00;;;18.90;76.10;;;;;;4930755;29;20031;-66
2023/06/02 11:36:27;;;;;;;15.70;4.75;;;19.00;77.40;;;;;;4930234;29;20524;-67
2023/06/02 11:39:02;;;;;;;8.73;3.28;;;19.00;76.70;;;;;;4930937;29;20115;-66
2023/06/02 11:41:28;;;;;;;12.50;3.40;;;18.90;75.10;;;;;;4947628;29;20056;-67
2023/06/02 11:44:04;;;;;;;8.00;3.50;;;18.90;76.40;;;;;;4934096;29;20055;-65
2023/06/02 11:46:30;;;;;;;13.65;3.17;;;18.90;76.70;;;;;;4941976;29;20560;-66
2023/06/02 11:48:55;;;;;;;21.88;4.93;;;19.10;76.90;;;;;;4939938;29;20046;-66
2023/06/02 11:51:22;;;;;;;12.10;4.13;;;18.80;75.10;;;;;;4927860;29;20027;-66
2023/06/02 11:53:59;;;;;;;10.80;4.03;;;18.30;76.70;;;;;;4930256;29;20537;-66
2023/06/02 11:56:25;;;;;;;11.20;3.97;;;18.50;80.40;;;;;;4932034;29;20019;-66
2023/06/02 11:58:51;;;;;;;11.75;3.85;;;18.70;76.70;;;;;;4934988;29;20035;-66
2023/06/02 12:01:21;;;;;;;16.50;3.80;;;18.90;77.50;;;;;;4926023;29;20041;-65
2023/06/02 12:04:00;;;;;;;9.82;3.60;;;18.80;76.00;;;;;;4928430;29;20023;-66
2023/06/02 12:06:27;;;;;;;7.70;3.55;;;18.90;76.70;;;;;;4925208;29;20028;-66
2023/06/02 12:08:52;;;;;;;7.95;3.80;;;18.90;75.30;;;;;;4926455;29;20039;-66
2023/06/02 12:11:21;;;;;;;13.55;4.32;;;18.80;75.80;;;;;;4928451;29;20550;-66
2023/06/02 12:14:04;;;;;;;12.35;4.63;;;18.70;76.70;;;;;;4937657;29;20456;-67
2023/06/02 12:16:30;;;;;;;9.45;4.30;;;18.60;77.20;;;;;;4928745;29;20046;-66
2023/06/02 12:19:15;;;;;;;14.73;4.00;;;18.60;77.00;;;;;;4926992;29;20501;-66
2023/06/02 12:21:42;;;;;;;12.75;4.00;;;18.60;76.40;;;;;;4925535;29;20038;-65
2023/06/02 12:24:09;;;;;;;10.60;3.60;;;18.50;76.50;;;;;;4929749;29;20054;-67
2023/06/02 12:26:42;;;;;;;9.25;3.38;;;18.60;78.40;;;;;;4922689;29;20115;-66
2023/06/02 12:29:13;;;;;;;7.93;3.60;;;18.70;76.00;;;;;;4931145;29;20079;-66
2023/06/02 12:31:39;;;;;;;14.48;4.85;;;18.80;76.10;;;;;;4928945;29;20031;-66
2023/06/02 12:34:08;;;;;;;8.15;4.18;;;18.80;77.60;;;;;;4927042;29;20079;-66
2023/06/02 12:36:35;;;;;;;12.15;4.82;;;18.90;77.20;;;;;;4929114;29;20110;-66
2023/06/02 12:39:01;;;;;;;14.80;5.47;;;19.00;75.30;;;;;;4927670;29;20035;-65
2023/06/02 12:41:26;;;;;;;12.25;4.97;;;19.10;74.90;;;;;;4932819;29;20102;-66
2023/06/02 12:43:52;;;;;;;13.80;5.55;;;19.10;73.10;;;;;;4931400;29;20553;-68
2023/06/02 12:46:18;;;;;;;11.55;5.47;;;19.00;73.80;;;;;;4926818;29;20655;-67